Time;durP1;ratioP1;P1;durP2;ratioP2;P2;SDS_P1;SDS_P2;PMS_P1;PMS_P2;Temp;Humidity;BMP_temperature;BMP_pressure;BME280_temperature;BME280_humidity;BME280_pressure;Samples;Min_cycle;Max_cycle;Signal;HPM_P1;HPM_P2
2022/08/13 00:03:44;;;;;;;;;;;;;;;20.93;100.00;100928.44;10067638;29;19928;-69
2022/08/13 00:09:05;;;;;;;;;;;;;;;20.91;100.00;100920.59;10068127;29;19928;-71
2022/08/13 00:14:23;;;;;;;;;;;;;;;20.88;100.00;100907.50;10067456;29;20004;-70
2022/08/13 00:19:39;;;;;;;;;;;;;;;20.87;100.00;100918.13;10066538;29;19928;-73
2022/08/13 00:24:45;;;;;;;;;;;;;;;20.92;100.00;100911.75;10067083;29;19936;-64
2022/08/13 00:29:56;;;;;;;;;;;;;;;20.76;100.00;100896.66;10066886;29;19951;-69
2022/08/13 00:35:00;;;;;;;;;;;;;;;20.82;100.00;100891.09;10066636;29;20022;-68
2022/08/13 00:40:03;;;;;;;;;;;;;;;20.84;100.00;100876.06;10066592;29;19996;-70
2022/08/13 00:45:21;;;;;;;;;;;;;;;20.83;100.00;100875.19;10066146;29;19928;-69
2022/08/13 00:50:26;;;;;;;;;;;;;;;20.76;100.00;100867.63;10066094;29;19944;-68
2022/08/13 00:55:29;;;;;;;;;;;;;;;20.71;100.00;100872.25;10065790;29;19928;-67
2022/08/13 01:00:35;;;;;;;;;;;;;;;20.71;100.00;100869.63;10065789;29;19928;-71
2022/08/13 01:05:40;;;;;;;;;;;;;;;20.69;100.00;100867.03;10065606;29;20009;-66
2022/08/13 01:10:45;;;;;;;;;;;;;;;20.71;100.00;100875.72;10065777;29;19929;-67
2022/08/13 01:16:02;;;;;;;;;;;;;;;20.73;100.00;100867.75;10065784;29;19932;-68
2022/08/13 01:21:08;;;;;;;;;;;;;;;20.66;100.00;100856.59;10064913;29;20259;-66
2022/08/13 01:26:13;;;;;;;;;;;;;;;20.62;100.00;100847.13;10064827;29;20084;-67
2022/08/13 01:31:22;;;;;;;;;;;;;;;20.62;100.00;100849.75;10064290;29;19955;-67
2022/08/13 01:36:25;;;;;;;;;;;;;;;20.60;100.00;100855.09;10064325;29;19942;-71
2022/08/13 01:41:50;;;;;;;;;;;;;;;20.61;100.00;100861.22;10064063;29;19994;-68
2022/08/13 01:52:17;;;;;;;;;;;;;;;20.63;100.00;100854.97;10064060;29;19928;-68
2022/08/13 01:57:22;;;;;;;;;;;;;;;20.64;100.00;100840.84;10063604;29;19939;-68
2022/08/13 02:02:45;;;;;;;;;;;;;;;20.63;100.00;100831.22;10063777;29;20258;-66
2022/08/13 02:07:49;;;;;;;;;;;;;;;20.61;100.00;100834.84;10063404;29;19928;-69
2022/08/13 02:13:08;;;;;;;;;;;;;;;20.64;100.00;100837.34;10063751;29;19928;-62
2022/08/13 02:18:17;;;;;;;;;;;;;;;20.65;100.00;100837.31;10063148;29;19928;-65
2022/08/13 02:23:22;;;;;;;;;;;;;;;20.73;100.00;100842.22;10062784;29;19939;-69
2022/08/13 02:28:46;;;;;;;;;;;;;;;20.74;100.00;100843.94;9389774;29;10000713;-65
2022/08/13 02:33:52;;;;;;;;;;;;;;;20.65;100.00;100839.94;10059711;29;19938;-65
2022/08/13 02:38:56;;;;;;;;;;;;;;;20.52;100.00;100832.59;10059300;29;19928;-64
2022/08/13 02:44:04;;;;;;;;;;;;;;;20.50;100.00;100834.47;10058591;29;19932;-66
2022/08/13 02:49:17;;;;;;;;;;;;;;;20.48;100.00;100828.41;10059168;29;20158;-65
2022/08/13 02:54:21;;;;;;;;;;;;;;;20.48;100.00;100823.97;10058939;29;19932;-67
2022/08/13 02:59:28;;;;;;;;;;;;;;;20.44;100.00;100817.13;10059219;29;20379;-66
2022/08/13 03:04:53;;;;;;;;;;;;;;;20.28;100.00;100809.91;10058574;29;19928;-66
2022/08/13 03:09:56;;;;;;;;;;;;;;;20.29;100.00;100812.50;10058620;29;19928;-63
2022/08/13 03:15:03;;;;;;;;;;;;;;;20.27;100.00;100811.72;10058486;29;19935;-70
2022/08/13 03:20:07;;;;;;;;;;;;;;;20.37;100.00;100797.22;10058652;29;19935;-70
2022/08/13 03:25:15;;;;;;;;;;;;;;;20.37;100.00;100785.81;10058644;29;19932;-66
2022/08/13 03:30:21;;;;;;;;;;;;;;;20.33;100.00;100790.34;10021919;29;19929;-66
2022/08/13 03:35:32;;;;;;;;;;;;;;;20.24;100.00;100796.00;10020129;29;19932;-69
2022/08/13 03:41:11;;;;;;;;;;;;;;;20.22;100.00;100797.88;10019836;29;20252;-67
2022/08/13 03:46:19;;;;;;;;;;;;;;;20.10;100.00;100793.09;10019805;29;20254;-66
2022/08/13 03:51:23;;;;;;;;;;;;;;;20.16;100.00;100787.56;10020040;29;19940;-67
2022/08/13 03:56:39;;;;;;;;;;;;;;;20.21;100.00;100787.38;10027265;29;20239;-69
2022/08/13 04:01:53;;;;;;;;;;;;;;;20.17;100.00;100791.91;10027023;29;20395;-68
2022/08/13 04:06:59;;;;;;;;;;;;;;;20.18;100.00;100798.06;10026564;29;20339;-67
2022/08/13 04:12:03;;;;;;;;;;;;;;;20.28;100.00;100802.88;10026219;29;20343;-71
2022/08/13 04:17:10;;;;;;;;;;;;;;;20.29;100.00;100809.00;10027943;29;20091;-73
2022/08/13 04:22:17;;;;;;;;;;;;;;;20.33;100.00;100808.81;10029549;29;19992;-68
2022/08/13 04:27:20;;;;;;;;;;;;;;;20.37;100.00;100810.41;10028841;29;19929;-73
2022/08/13 04:32:25;;;;;;;;;;;;;;;20.40;100.00;100818.16;10028779;29;19935;-71
2022/08/13 04:37:51;;;;;;;;;;;;;;;20.40;100.00;100814.66;10028330;29;19939;-70
2022/08/13 04:42:58;;;;;;;;;;;;;;;20.43;100.00;100818.03;10028405;29;20403;-72
2022/08/13 04:48:04;;;;;;;;;;;;;;;20.46;100.00;100812.66;10028082;29;19939;-69
2022/08/13 04:53:10;;;;;;;;;;;;;;;20.50;100.00;100805.47;10027729;29;19928;-71
2022/08/13 04:58:15;;;;;;;;;;;;;;;20.48;100.00;100808.13;10027766;29;19929;-70
2022/08/13 05:03:21;;;;;;;;;;;;;;;20.55;100.00;100793.75;10027203;29;19938;-70
2022/08/13 05:08:35;;;;;;;;;;;;;;;20.53;100.00;100798.28;10027745;29;19935;-70
2022/08/13 05:13:42;;;;;;;;;;;;;;;20.60;100.00;100794.41;10027056;29;19928;-69
2022/08/13 05:18:50;;;;;;;;;;;;;;;20.59;100.00;100794.47;10026629;29;20270;-72
2022/08/13 05:23:54;;;;;;;;;;;;;;;20.64;100.00;100795.13;10026908;29;19939;-71
2022/08/13 05:29:17;;;;;;;;;;;;;;;20.72;100.00;100805.34;10026726;29;20363;-73
2022/08/13 05:34:20;;;;;;;;;;;;;;;20.71;100.00;100796.56;10026430;29;20370;-70
2022/08/13 05:39:23;;;;;;;;;;;;;;;20.74;100.00;100785.03;10026382;29;19939;-71
2022/08/13 05:44:26;;;;;;;;;;;;;;;20.80;100.00;100782.97;10025895;29;19980;-73
2022/08/13 05:49:31;;;;;;;;;;;;;;;20.82;100.00;100778.50;10025740;29;19939;-72
2022/08/13 05:54:55;;;;;;;;;;;;;;;20.82;100.00;100786.41;10025657;29;19935;-70
2022/08/13 06:06:14;;;;;;;;;;;;;;;20.90;100.00;100794.00;10003286;29;19928;-72
2022/08/13 06:11:22;;;;;;;;;;;;;;;20.91;100.00;100795.69;10024871;29;20353;-75
2022/08/13 06:16:45;;;;;;;;;;;;;;;20.81;100.00;100833.97;10024592;29;19929;-70
2022/08/13 06:22:01;;;;;;;;;;;;;;;20.77;100.00;100845.59;10024878;29;19928;-69
2022/08/13 06:27:05;;;;;;;;;;;;;;;20.76;100.00;100897.50;10024721;29;19928;-71
2022/08/13 06:32:17;;;;;;;;;;;;;;;20.72;100.00;100930.22;10024599;29;20278;-73
2022/08/13 06:37:45;;;;;;;;;;;;;;;20.64;100.00;100932.31;10024139;29;19929;-74
2022/08/13 06:42:53;;;;;;;;;;;;;;;20.37;100.00;100947.53;10023900;29;20411;-70
2022/08/13 06:47:59;;;;;;;;;;;;;;;20.09;100.00;100946.88;10024064;29;19939;-71
2022/08/13 06:53:06;;;;;;;;;;;;;;;20.03;100.00;100964.72;10024038;29;19936;-71
2022/08/13 06:58:30;;;;;;;;;;;;;;;19.93;100.00;100964.19;10023940;29;19932;-69
2022/08/13 07:03:35;;;;;;;;;;;;;;;19.83;100.00;100944.38;10024240;29;20224;-73
2022/08/13 07:09:01;;;;;;;;;;;;;;;19.81;100.00;100956.75;10023647;29;19933;-71
2022/08/13 07:14:07;;;;;;;;;;;;;;;19.80;100.00;100978.75;10023735;29;19932;-68
2022/08/13 07:19:16;;;;;;;;;;;;;;;19.90;100.00;100963.44;10023665;29;19935;-73
2022/08/13 07:24:23;;;;;;;;;;;;;;;19.96;100.00;100952.69;10023434;29;19928;-78
2022/08/13 07:29:49;;;;;;;;;;;;;;;20.02;100.00;100928.75;10028208;29;19935;-71
2022/08/13 07:34:56;;;;;;;;;;;;;;;20.17;100.00;100900.00;10030890;29;19994;-70
2022/08/13 07:40:01;;;;;;;;;;;;;;;20.25;100.00;100866.28;10030550;29;20371;-73
2022/08/13 07:45:05;;;;;;;;;;;;;;;20.36;100.00;100865.84;10030160;29;19939;-73
2022/08/13 07:50:29;;;;;;;;;;;;;;;20.44;100.00;100877.78;10030143;29;20163;-73
2022/08/13 07:55:34;;;;;;;;;;;;;;;20.49;100.00;100853.84;10030126;29;19929;-74
2022/08/13 08:00:59;;;;;;;;;;;;;;;20.59;100.00;100861.28;10029791;29;19932;-73
2022/08/13 08:06:05;;;;;;;;;;;;;;;20.68;100.00;100860.03;10029676;29;20291;-71
2022/08/13 08:12:30;;;;;;;;;;;;;;;20.77;100.00;100842.94;10029361;29;19932;-75
2022/08/13 08:16:42;;;;;;;;;;;;;;;20.83;100.00;100835.59;10028885;29;19928;-72
2022/08/13 08:21:45;;;;;;;;;;;;;;;20.86;100.00;100821.44;10028979;29;20270;-73
2022/08/13 08:27:10;;;;;;;;;;;;;;;20.91;100.00;100803.59;10028923;29;19934;-73
2022/08/13 08:32:21;;;;;;;;;;;;;;;21.14;100.00;100792.91;10028664;29;20311;-74
2022/08/13 08:43:04;;;;;;;;;;;;;;;21.44;100.00;100765.88;9384635;29;10000791;-70
2022/08/13 08:48:29;;;;;;;;;;;;;;;21.56;100.00;100748.59;10025349;29;19928;-73
2022/08/13 08:53:34;;;;;;;;;;;;;;;21.73;100.00;100736.25;10024797;29;19936;-71
2022/08/13 08:58:58;;;;;;;;;;;;;;;21.96;100.00;100716.63;10024543;29;20074;-71
2022/08/13 09:04:05;;;;;;;;;;;;;;;22.07;100.00;100705.50;10024449;29;19935;-71
2022/08/13 09:09:09;;;;;;;;;;;;;;;22.25;100.00;100694.81;10024136;29;20347;-72
2022/08/13 09:14:19;;;;;;;;;;;;;;;22.33;100.00;100697.06;10024357;29;19928;-68
2022/08/13 09:19:23;;;;;;;;;;;;;;;22.49;100.00;100716.47;10024105;29;19929;-73
2022/08/13 09:24:46;;;;;;;;;;;;;;;22.63;100.00;100719.28;10023612;29;19928;-70
2022/08/13 09:29:52;;;;;;;;;;;;;;;22.74;100.00;100723.03;10023281;29;19954;-72
2022/08/13 09:35:04;;;;;;;;;;;;;;;22.85;100.00;100717.16;10023399;29;19943;-73
2022/08/13 09:40:08;;;;;;;;;;;;;;;23.08;100.00;100715.91;10023148;29;19928;-72
2022/08/13 09:45:14;;;;;;;;;;;;;;;23.36;100.00;100716.09;10023027;29;19928;-73
2022/08/13 09:50:17;;;;;;;;;;;;;;;23.57;100.00;100725.47;10023077;29;19975;-73
2022/08/13 09:55:22;;;;;;;;;;;;;;;23.69;100.00;100724.75;10022554;29;19936;-74
2022/08/13 10:00:47;;;;;;;;;;;;;;;23.47;100.00;100738.38;10022637;29;19935;-73
2022/08/13 10:05:51;;;;;;;;;;;;;;;23.37;100.00;100745.16;10022077;29;19942;-74
2022/08/13 10:10:55;;;;;;;;;;;;;;;23.45;100.00;100748.22;10022295;29;19928;-71
2022/08/13 10:16:01;;;;;;;;;;;;;;;23.63;100.00;100735.72;10022006;29;19942;-74
2022/08/13 10:21:04;;;;;;;;;;;;;;;23.97;100.00;100732.78;10021744;29;19950;-70
2022/08/13 10:26:07;;;;;;;;;;;;;;;24.24;100.00;100730.34;10021412;29;19929;-68
2022/08/13 10:31:12;;;;;;;;;;;;;;;24.49;100.00;100722.59;10021276;29;19932;-71
2022/08/13 10:36:35;;;;;;;;;;;;;;;24.78;100.00;100719.84;10021322;29;19960;-70
2022/08/13 10:41:39;;;;;;;;;;;;;;;25.24;100.00;100703.63;10029327;29;19928;-70
2022/08/13 10:47:03;;;;;;;;;;;;;;;25.27;100.00;100698.97;10059001;29;19966;-72
2022/08/13 10:52:06;;;;;;;;;;;;;;;25.43;100.00;100697.06;10058957;29;19928;-72
2022/08/13 10:57:11;;;;;;;;;;;;;;;25.82;100.00;100680.25;10058780;29;20406;-73
2022/08/13 11:02:16;;;;;;;;;;;;;;;26.04;100.00;100677.88;10058208;29;20394;-71
2022/08/13 11:07:25;;;;;;;;;;;;;;;26.42;100.00;100654.72;10058879;29;19989;-75
2022/08/13 11:12:29;;;;;;;;;;;;;;;26.73;100.00;100653.47;10059171;29;19991;-71
2022/08/13 11:17:34;;;;;;;;;;;;;;;26.75;100.00;100643.53;10058564;29;19928;-73
2022/08/13 11:22:57;;;;;;;;;;;;;;;26.41;100.00;100642.41;10058352;29;20366;-72
2022/08/13 11:28:01;;;;;;;;;;;;;;;26.60;100.00;100636.59;10058242;29;19928;-73
2022/08/13 11:33:06;;;;;;;;;;;;;;;26.59;100.00;100640.25;10058315;29;19932;-70
2022/08/13 11:38:16;;;;;;;;;;;;;;;26.17;100.00;100647.66;10058439;29;20023;-72
2022/08/13 11:43:19;;;;;;;;;;;;;;;25.89;100.00;100647.81;10036975;29;19928;-70
2022/08/13 11:48:24;;;;;;;;;;;;;;;25.62;100.00;100648.81;10019832;29;19932;-73
2022/08/13 11:53:31;;;;;;;;;;;;;;;25.41;100.00;100650.25;10019889;29;19929;-70
2022/08/13 11:58:55;;;;;;;;;;;;;;;25.34;100.00;100665.72;10019651;29;19928;-72
2022/08/13 12:04:01;;;;;;;;;;;;;;;25.30;100.00;100655.41;10020256;29;19940;-73
2022/08/13 12:09:24;;;;;;;;;;;;;;;25.24;100.00;100656.66;10019996;29;19929;-70
2022/08/13 12:14:47;;;;;;;;;;;;;;;25.16;100.00;100653.66;10020999;29;19961;-72
2022/08/13 12:19:53;;;;;;;;;;;;;;;25.03;100.00;100650.09;10026029;29;19933;-72
2022/08/13 12:24:56;;;;;;;;;;;;;;;24.88;100.00;100651.94;10025774;29;19929;-71
2022/08/13 12:30:19;;;;;;;;;;;;;;;24.70;100.00;100653.09;10060648;29;19929;-69
2022/08/13 12:35:26;;;;;;;;;;;;;;;24.51;100.00;100647.22;10063609;29;20323;-71
2022/08/13 12:40:49;;;;;;;;;;;;;;;24.38;100.00;100648.94;10060588;29;19929;-69
2022/08/13 12:45:52;;;;;;;;;;;;;;;24.42;100.00;100653.09;10045209;29;19928;-70
2022/08/13 12:51:00;;;;;;;;;;;;;;;24.50;100.00;100649.97;10062638;29;20361;-72
2022/08/13 12:56:03;;;;;;;;;;;;;;;24.60;100.00;100651.09;10062026;29;19938;-71
2022/08/13 13:01:06;;;;;;;;;;;;;;;24.72;100.00;100642.38;10062930;29;19939;-74
2022/08/13 13:06:11;;;;;;;;;;;;;;;24.79;100.00;100643.69;10085665;29;19939;-70
2022/08/13 13:11:34;;;;;;;;;;;;;;;24.87;100.00;100634.28;10082839;29;20444;-67
2022/08/13 13:16:53;;;;;;;;;;;;;;;25.16;100.00;100628.91;10061143;29;20388;-71
2022/08/13 13:22:02;;;;;;;;;;;;;;;25.60;100.00;100618.81;10061795;29;19982;-67
2022/08/13 13:27:07;;;;;;;;;;;;;;;25.77;100.00;100615.88;10061158;29;19932;-67
2022/08/13 13:32:13;;;;;;;;;;;;;;;25.75;100.00;100607.13;10070149;29;19928;-67
2022/08/13 13:37:43;;;;;;;;;;;;;;;26.64;98.01;100595.47;10099706;29;19932;-69
2022/08/13 13:43:06;;;;;;;;;;;;;;;26.90;95.55;100578.47;10079961;29;20011;-70
2022/08/13 13:48:28;;;;;;;;;;;;;;;27.03;92.96;100576.59;10060878;29;20339;-64
2022/08/13 13:53:33;;;;;;;;;;;;;;;27.10;91.36;100565.38;10060866;29;19943;-70
2022/08/13 13:58:56;;;;;;;;;;;;;;;27.11;90.20;100553.72;10060498;29;20606;-67
2022/08/13 14:04:02;;;;;;;;;;;;;;;27.10;89.19;100548.50;10061242;29;19928;-70
2022/08/13 14:09:08;;;;;;;;;;;;;;;27.08;89.35;100542.44;10060494;29;19928;-67
2022/08/13 14:14:12;;;;;;;;;;;;;;;27.25;88.42;100545.53;10060004;29;20296;-65
2022/08/13 14:19:17;;;;;;;;;;;;;;;27.29;87.34;100536.38;10059652;29;19939;-62
2022/08/13 14:24:42;;;;;;;;;;;;;;;27.29;86.03;100541.72;10059441;29;19951;-67
2022/08/13 14:29:50;;;;;;;;;;;;;;;27.18;84.05;100532.81;10059619;29;19928;-66
2022/08/13 14:34:57;;;;;;;;;;;;;;;27.11;83.10;100535.06;10059755;29;20019;-63
2022/08/13 14:40:03;;;;;;;;;;;;;;;27.11;82.64;100544.91;10058385;29;19928;-66
2022/08/13 14:50:33;;;;;;;;;;;;;;;27.05;81.40;100532.88;10020872;29;20012;-64
2022/08/13 14:55:39;;;;;;;;;;;;;;;26.90;81.89;100534.03;10021115;29;19930;-65
2022/08/13 15:00:44;;;;;;;;;;;;;;;26.79;82.30;100533.13;10022328;29;19928;-67
2022/08/13 15:05:51;;;;;;;;;;;;;;;26.54;83.57;100512.72;10020712;29;19954;-68
2022/08/13 15:10:59;;;;;;;;;;;;;;;26.42;82.79;100500.31;10020379;29;20044;-65
2022/08/13 15:16:09;;;;;;;;;;;;;;;26.43;82.59;100486.06;10053116;29;19929;-64
2022/08/13 15:21:17;;;;;;;;;;;;;;;26.30;82.95;100495.88;10058598;29;19935;-66
2022/08/13 15:26:41;;;;;;;;;;;;;;;26.13;84.05;100488.28;10058746;29;19928;-64
2022/08/13 15:31:48;;;;;;;;;;;;;;;25.99;84.49;100477.72;10058763;29;20247;-67
2022/08/13 15:36:51;;;;;;;;;;;;;;;26.00;84.65;100460.81;10058854;29;20039;-65
2022/08/13 15:42:06;;;;;;;;;;;;;;;25.99;85.54;100449.31;10047081;29;19942;-67
2022/08/13 15:47:14;;;;;;;;;;;;;;;26.04;85.98;100457.03;10020052;29;20307;-65
2022/08/13 15:52:18;;;;;;;;;;;;;;;25.99;86.79;100445.81;10026454;29;20016;-64
2022/08/13 15:57:23;;;;;;;;;;;;;;;26.01;87.47;100438.56;10027109;29;19928;-64
2022/08/13 16:02:31;;;;;;;;;;;;;;;25.85;88.67;100419.38;10026762;29;19939;-67
2022/08/13 16:07:54;;;;;;;;;;;;;;;25.77;89.99;100421.72;10026231;29;19942;-68
2022/08/13 16:13:00;;;;;;;;;;;;;;;25.74;90.24;100411.28;10026258;29;19943;-65
2022/08/13 16:18:06;;;;;;;;;;;;;;;25.62;90.75;100410.38;10026030;29;19937;-71
2022/08/13 16:23:14;;;;;;;;;;;;;;;25.52;92.24;100416.44;10025928;29;20462;-65
2022/08/13 16:28:20;;;;;;;;;;;;;;;25.45;93.00;100420.50;10026024;29;20275;-67
2022/08/13 16:33:24;;;;;;;;;;;;;;;25.39;93.51;100428.88;10025586;29;19939;-64
2022/08/13 16:38:47;;;;;;;;;;;;;;;25.30;93.54;100429.50;10025307;29;19928;-66
2022/08/13 16:43:54;;;;;;;;;;;;;;;25.23;94.32;100437.03;10049534;29;19928;-67
2022/08/13 16:49:03;;;;;;;;;;;;;;;25.18;94.88;100447.13;10063537;29;19939;-62
2022/08/13 16:54:07;;;;;;;;;;;;;;;25.15;94.85;100442.03;10064367;29;19936;-65
2022/08/13 16:59:32;;;;;;;;;;;;;;;25.12;95.21;100434.28;10065474;29;20430;-66
2022/08/13 17:10:19;;;;;;;;;;;;;;;25.01;95.09;100453.63;10065318;29;20270;-67
2022/08/13 17:15:25;;;;;;;;;;;;;;;25.00;94.96;100480.28;10065717;29;19928;-70
2022/08/13 17:20:28;;;;;;;;;;;;;;;24.86;94.12;100478.56;10065194;29;19936;-65
2022/08/13 17:25:38;;;;;;;;;;;;;;;24.65;94.01;100498.53;10065340;29;19954;-69
2022/08/13 17:30:43;;;;;;;;;;;;;;;24.41;93.82;100504.56;10064473;29;19934;-67
2022/08/13 17:35:46;;;;;;;;;;;;;;;24.13;93.57;100492.22;10063244;29;19939;-70
2022/08/13 17:40:50;;;;;;;;;;;;;;;23.95;93.48;100491.56;10064224;29;20011;-74
2022/08/13 17:45:56;;;;;;;;;;;;;;;23.81;93.70;100490.72;10064337;29;19928;-70
2022/08/13 17:51:03;;;;;;;;;;;;;;;23.68;94.59;100485.31;10064127;29;19928;-69
2022/08/13 17:56:11;;;;;;;;;;;;;;;23.56;95.24;100494.03;10063874;29;19938;-68
2022/08/13 18:01:17;;;;;;;;;;;;;;;23.40;94.90;100503.84;10063559;29;20267;-71
2022/08/13 18:06:26;;;;;;;;;;;;;;;23.23;95.47;100501.34;10063388;29;19932;-68
2022/08/13 18:11:33;;;;;;;;;;;;;;;23.12;96.58;100514.38;10063266;29;19939;-70
2022/08/13 18:16:45;;;;;;;;;;;;;;;23.09;98.02;100511.88;10049176;29;19928;-68
2022/08/13 18:22:08;;;;;;;;;;;;;;;22.99;99.24;100517.84;10063102;29;19938;-68
2022/08/13 18:27:11;;;;;;;;;;;;;;;22.93;100.00;100521.69;10062890;29;19928;-72
2022/08/13 18:32:26;;;;;;;;;;;;;;;22.82;100.00;100530.25;10062854;29;20359;-70
2022/08/13 18:37:34;;;;;;;;;;;;;;;22.76;100.00;100543.81;10062734;29;19939;-70
2022/08/13 18:42:46;;;;;;;;;;;;;;;22.68;100.00;100550.50;10062728;29;20236;-68
2022/08/13 18:47:55;;;;;;;;;;;;;;;22.68;100.00;100551.34;10055616;29;19929;-70
2022/08/13 18:52:58;;;;;;;;;;;;;;;22.71;100.00;100548.53;9687766;29;10000421;-70
2022/08/13 18:58:23;;;;;;;;;;;;;;;22.67;100.00;100544.38;10020836;29;20020;-70
2022/08/13 19:03:27;;;;;;;;;;;;;;;22.62;100.00;100538.44;10021439;29;19929;-73
2022/08/13 19:08:36;;;;;;;;;;;;;;;22.60;100.00;100528.91;10040501;29;19936;-70
2022/08/13 19:13:42;;;;;;;;;;;;;;;22.57;100.00;100526.44;10058680;29;19995;-67
2022/08/13 19:18:54;;;;;;;;;;;;;;;22.54;100.00;100540.69;10058621;29;20248;-69
2022/08/13 19:23:59;;;;;;;;;;;;;;;22.52;100.00;100526.66;10060561;29;20370;-69
2022/08/13 19:29:02;;;;;;;;;;;;;;;22.50;100.00;100515.28;10065985;29;19928;-70
2022/08/13 19:34:12;;;;;;;;;;;;;;;22.54;100.00;100492.19;10066368;29;20236;-68
2022/08/13 19:39:25;;;;;;;;;;;;;;;22.49;100.00;100494.22;10065922;29;20355;-68
2022/08/13 19:44:48;;;;;;;;;;;;;;;22.47;100.00;100496.97;10065554;29;19932;-69
2022/08/13 19:49:57;;;;;;;;;;;;;;;22.45;100.00;100503.28;10065331;29;20292;-70
2022/08/13 19:55:00;;;;;;;;;;;;;;;22.40;100.00;100514.13;10065956;29;19942;-71
2022/08/13 20:00:20;;;;;;;;;;;;;;;22.39;100.00;100511.56;10030878;29;19988;-68
2022/08/13 20:05:30;;;;;;;;;;;;;;;22.36;100.00;100494.09;10027201;29;19929;-70
2022/08/13 20:10:53;;;;;;;;;;;;;;;22.36;100.00;100470.28;10026558;29;19929;-71
2022/08/13 20:15:58;;;;;;;;;;;;;;;22.30;100.00;100478.53;10026328;29;19932;-70
2022/08/13 20:21:02;;;;;;;;;;;;;;;22.27;100.00;100477.88;10026093;29;19932;-70
2022/08/13 20:26:07;;;;;;;;;;;;;;;22.22;100.00;100464.91;10026008;29;19939;-68
2022/08/13 20:31:19;;;;;;;;;;;;;;;22.11;100.00;100461.13;10026101;29;20025;-71
2022/08/13 20:36:24;;;;;;;;;;;;;;;22.07;100.00;100462.25;10024526;29;20319;-69
2022/08/13 20:41:31;;;;;;;;;;;;;;;22.11;100.00;100461.13;10025242;29;19967;-70
2022/08/13 20:46:50;;;;;;;;;;;;;;;22.04;100.00;100451.88;10025205;29;19951;-68
2022/08/13 20:51:57;;;;;;;;;;;;;;;22.05;100.00;100443.84;10038986;29;19936;-69
2022/08/13 20:57:00;;;;;;;;;;;;;;;22.08;100.00;100435.75;10063024;29;19940;-71
2022/08/13 21:02:03;;;;;;;;;;;;;;;22.08;100.00;100438.38;10063327;29;19928;-68
2022/08/13 21:07:11;;;;;;;;;;;;;;;22.10;100.00;100438.28;10062741;29;19991;-68
2022/08/13 21:12:15;;;;;;;;;;;;;;;22.10;100.00;100436.50;10062448;29;19928;-68
2022/08/13 21:17:20;;;;;;;;;;;;;;;22.09;100.00;100445.34;10062274;29;20378;-70
2022/08/13 21:22:41;;;;;;;;;;;;;;;22.05;100.00;100440.34;10062092;29;19958;-68
2022/08/13 21:27:46;;;;;;;;;;;;;;;22.08;100.00;100443.66;10062014;29;19928;-71
2022/08/13 21:33:09;;;;;;;;;;;;;;;22.07;100.00;100441.13;10061857;29;20030;-68
2022/08/13 21:38:18;;;;;;;;;;;;;;;22.08;100.00;100438.38;10061452;29;19939;-70
2022/08/13 21:43:34;;;;;;;;;;;;;;;22.06;100.00;100442.03;10061120;29;19980;-69
2022/08/13 21:48:52;;;;;;;;;;;;;;;22.08;100.00;100438.38;10060671;29;19936;-69
2022/08/13 21:53:59;;;;;;;;;;;;;;;22.09;100.00;100439.25;10060690;29;20373;-73
2022/08/13 21:59:06;;;;;;;;;;;;;;;22.07;100.00;100441.13;10061092;29;19987;-67
2022/08/13 22:04:12;;;;;;;;;;;;;;;22.04;100.00;100436.84;10060460;29;19935;-66
2022/08/13 22:09:18;;;;;;;;;;;;;;;22.04;100.00;100441.28;10060284;29;19940;-68
2022/08/13 22:14:21;;;;;;;;;;;;;;;22.03;100.00;100440.44;10060050;29;19932;-69
2022/08/13 22:19:24;;;;;;;;;;;;;;;22.08;100.00;100442.81;10059970;29;19942;-71
2022/08/13 22:24:30;;;;;;;;;;;;;;;22.15;100.00;100437.09;10060060;29;19928;-74
2022/08/13 22:34:55;;;;;;;;;;;;;;;22.09;100.00;100434.78;10059710;29;19929;-74
2022/08/13 22:40:00;;;;;;;;;;;;;;;22.03;100.00;100435.16;10059496;29;19932;-63
2022/08/13 22:45:12;;;;;;;;;;;;;;;21.94;100.00;100422.44;10059263;29;19934;-65
2022/08/13 22:50:16;;;;;;;;;;;;;;;21.95;100.00;100425.94;10057669;29;19987;-64
2022/08/13 22:55:22;;;;;;;;;;;;;;;21.93;100.00;100417.22;10021334;29;19932;-67
2022/08/13 23:00:45;;;;;;;;;;;;;;;21.85;100.00;100427.38;10021142;29;19928;-68
2022/08/13 23:05:50;;;;;;;;;;;;;;;21.89;100.00;100419.19;10023911;29;19928;-66
2022/08/13 23:11:03;;;;;;;;;;;;;;;21.89;100.00;100416.53;10023545;29;19938;-68
2022/08/13 23:16:06;;;;;;;;;;;;;;;21.87;100.00;100412.28;10023571;29;19962;-66
2022/08/13 23:21:21;;;;;;;;;;;;;;;21.76;100.00;100405.75;10023835;29;20343;-68
2022/08/13 23:26:28;;;;;;;;;;;;;;;21.79;100.00;100407.44;10023322;29;19936;-67
2022/08/13 23:31:33;;;;;;;;;;;;;;;21.82;100.00;100394.03;10023373;29;19938;-67
2022/08/13 23:36:36;;;;;;;;;;;;;;;21.83;100.00;100386.97;10023567;29;19928;-67
2022/08/13 23:41:41;;;;;;;;;;;;;;;21.81;100.00;100381.78;10023046;29;20393;-67
2022/08/13 23:46:44;;;;;;;;;;;;;;;21.79;100.00;100370.44;10022969;29;19928;-65
2022/08/13 23:51:56;;;;;;;;;;;;;;;21.81;100.00;100372.97;10022861;29;19951;-64
2022/08/13 23:57:00;;;;;;;;;;;;;;;21.83;100.00;100363.19;10022969;29;19942;-65
